Lynradar: storm image Ingen tordenbyger registrert..



Vårt webkamera mer informasjon My webcam


Kamera på Foreneset mer informasjon webcam on foreneset


Nedbørsradar  rain snow radar


Besøk vår andre værside:

Alternativ webside

iphone versjon

Nettbrett versjon

Foreneset
verstasjon



Ikke nødvendig med spesiell oppmerksomhet.    Det er ingen advarsler

Select another period ( hide this area )

enheter Periode Custom range Directly to
Metric Engelsk Begge
Daglig Weekly Månedlig Årlig
use both date-selectors for a custom range
previous Dag
With this date

WeatherUnderground graphs for this period ( click here )


Daglig sammendrag for onsdag 13 November 2019
Tid Temp. ( °C ) Dew pt. ( °C ) Vind ( km/h ) fra Vindkast ( km/h ) Trykk ( hPa ) Humid.( % ) Rainrate ( cm ) Sol ( W/m2 )
Max6,0 4,1 20,6 SØ ( 772/1256 ) 28,8 995,2 89 - 40
Snitt5,4 3,3 11,4 SØ #64/110 15,6 994,5 87 - 17 #9/110
Min4,7 2,3 3,1   5,6 994,1 84 -  
Daglig Tabular details for onsdag 13 November 2019
Tid Temp. ( °C ) Dew pt. ( °C ) Vind ( km/h ) fra Vindkast ( km/h ) Trykk ( hPa ) Humid.( % ) Rainrate ( cm ) Sol ( W/m2 )
00:00 5,5 3,7 8,4 13,0 994,3 88 - -
00:05 5,6 3,6 15,3 20,4 994,4 87 - -
00:10 5,7 3,7 15,0 18,5 994,3 87 - -
00:15 5,8 3,7 13,7 27,8 994,4 86 - -
00:20 5,7 3,6 17,4 22,2 994,4 86 - -
00:25 5,8 3,6 16,7 SSØ 20,4 994,4 86 - -
00:30 5,7 3,5 11,9 16,9 994,5 86 - -
00:35 5,7 3,7 13,0 SSØ 18,5 994,4 87 - -
00:40 5,6 3,6 20,1 25,9 994,4 87 - -
00:45 5,6 3,4 13,5 23,7 994,5 86 - -
00:50 5,6 3,6 18,0 22,2 994,5 87 - -
00:55 5,6 3,6 15,0 22,2 994,4 87 - -
01:00 5,6 3,6 18,7 SSØ 28,8 994,5 87 - -
01:05 5,7 3,7 19,6 SSØ 27,0 994,5 87 - -
01:10 5,7 3,7 20,6 27,8 994,5 87 - -
01:15 5,8 3,9 14,6 SSØ 24,1 994,5 88 - -
01:20 5,7 3,9 15,8 23,7 994,5 88 - -
01:25 5,6 3,8 14,3 16,9 994,5 88 - -
01:30 5,7 3,8 19,1 24,1 994,4 88 - -
01:35 5,6 3,7 13,7 ØSØ 15,3 994,4 88 - -
01:40 5,4 3,6 15,4 18,5 994,4 88 - -
01:45 5,4 3,7 16,4 20,4 994,4 89 - -
01:50 5,3 3,7 14,5 18,5 994,4 89 - -
01:55 5,3 3,7 11,7 16,9 994,3 89 - -
02:00 5,3 3,7 12,9 18,5 994,4 89 - -
02:05 5,3 3,7 17,1 18,5 994,4 89 - -
02:10 5,5 3,8 13,5 18,5 994,4 89 - -
02:15 5,6 3,9 12,4 14,8 994,5 89 - -
02:20 5,6 3,9 12,9 ØSØ 15,3 994,5 89 - -
02:25 5,7 4,1 14,8 18,5 994,6 89 - -
02:30 5,7 3,9 10,3 11,9 994,6 88 - -
02:35 5,8 3,9 11,7 15,3 994,7 88 - -
02:40 5,8 4,0 10,1 16,9 994,7 88 - -
02:45 5,9 4,1 10,0 13,0 994,6 88 - -
02:50 5,8 4,0 11,1 14,8 994,6 88 - -
02:55 5,9 4,1 12,4 14,8 994,6 88 - -
03:00 5,8 4,0 12,7 18,5 994,6 88 - -
03:05 5,8 4,0 14,8 16,9 994,4 88 - -
03:10 5,9 4,1 11,7 15,3 994,5 88 - -
03:15 5,9 3,9 12,4 15,3 994,4 87 - -
03:20 6,0 4,0 8,7 15,3 994,4 87 - -
03:25 5,9 3,9 10,6 13,0 994,4 87 - -
03:30 5,8 3,8 11,6 ØSØ 13,5 994,4 87 - -
03:35 5,7 3,7 12,2 14,8 994,4 87 - -
03:40 5,7 3,7 10,1 ØSØ 14,8 994,3 87 - -
03:45 5,6 3,6 10,1 ØSØ 11,9 994,4 87 - -
03:50 5,5 3,5 6,8 ØSØ 9,3 994,4 87 - -
03:55 5,4 3,4 10,0 13,5 994,4 87 - -
04:00 5,3 3,3 8,7 Øst 11,9 994,3 87 - -
04:05 5,3 3,3 6,8 ØSØ 9,3 994,3 87 - -
04:10 5,3 3,4 9,0 ØSØ 10,1 994,2 88 - -
04:15 5,2 3,2 9,7 ØSØ 10,1 994,3 87 - -
04:20 5,2 3,2 6,8 ØSØ 11,1 994,2 87 - -
04:25 5,3 3,3 8,2 14,8 994,1 87 - -
04:30 5,3 3,3 11,9 13,5 994,2 87 - -
04:35 5,4 3,4 9,2 15,3 994,2 87 - -
04:40 5,4 3,4 7,6 11,9 994,1 87 - -
04:45 5,4 3,3 8,5 ØSØ 13,5 994,1 86 - -
04:50 5,4 3,2 8,8 Øst 11,9 994,1 86 - -
04:55 5,3 3,2 3,9 7,4 994,2 86 - -
05:00 5,4 3,2 5,1 8,4 994,2 86 - -
05:05 5,3 3,2 7,1 9,3 994,2 86 - -
05:10 5,2 3,2 6,3 ØSØ 9,3 994,3 87 - -
05:15 5,2 3,2 8,5 11,1 994,3 87 - -
05:20 5,2 3,2 8,5 ØSØ 11,1 994,3 87 - -
05:25 5,1 2,9 6,8 9,3 994,3 86 - -
05:30 5,3 3,1 6,1 11,1 994,3 86 - -
05:35 5,2 3,1 4,2 7,4 994,3 86 - -
05:40 5,2 3,1 6,9 9,3 994,4 86 - -
05:45 5,2 3,1 5,8 Øst 10,1 994,4 86 - -
05:50 5,4 3,2 10,6 13,0 994,4 86 - -
05:55 5,4 3,3 7,4 14,8 994,4 86 - -
06:00 5,5 3,3 9,3 14,8 994,4 86 - -
06:05 5,6 3,2 11,7 SSØ 16,9 994,3 85 - -
06:10 5,6 3,2 6,9 ØSØ 13,5 994,3 85 - -
06:15 5,6 3,2 15,3 ØSØ 16,9 994,3 85 - -
06:20 5,4 2,9 9,0 15,3 994,3 84 - -
06:25 5,6 3,2 11,6 24,1 994,4 85 - -
06:30 5,7 3,4 16,3 20,4 994,4 85 - -
06:35 5,8 3,3 15,4 ØSØ 20,4 994,4 84 - -
06:40 5,8 3,3 15,3 22,2 994,5 84 - -
06:45 5,7 3,2 14,6 18,5 994,5 84 - -
06:50 5,5 3,0 12,2 15,3 994,4 84 - -
06:55 5,6 3,2 15,6 22,2 994,5 85 - -
07:00 5,4 3,1 14,2 18,5 994,5 85 - -
07:05 5,3 3,1 13,7 SSØ 18,5 994,5 86 - -
07:10 5,3 3,2 13,4 SSØ 15,3 994,5 86 - -
07:15 5,3 3,1 16,4 ØSØ 18,5 994,5 86 - -
07:20 5,3 3,1 14,8 18,5 994,5 86 - -
07:25 5,2 3,0 14,6 16,7 994,6 86 - -
07:30 5,1 2,8 10,9 ØSØ 13,5 994,6 85 - -
07:35 5,1 2,7 15,9 ØSØ 20,4 994,6 85 - -
07:40 4,9 2,8 10,0 Øst 13,5 994,6 86 - -
07:45 4,9 2,8 12,7 ØSØ 15,3 994,6 86 - -
07:50 4,8 2,5 11,9 ØSØ 18,5 994,6 85 - -
07:55 4,9 2,7 9,5 ØSØ 13,0 994,6 86 - -
08:00 4,8 2,5 8,4 ØSØ 11,9 994,7 85 - -
08:05 4,7 2,4 8,8 ØSØ 11,9 994,7 85 - -
08:10 4,7 2,6 11,1 16,7 994,7 86 - -
08:15 4,7 2,6 9,8 ØSØ 14,8 994,7 86 - -
08:20 4,7 2,3 9,3 ØSØ 11,9 994,9 85 - -
08:25 4,8 2,4 10,0 Øst 13,0 994,8 85 - 5
08:30 4,7 2,4 5,6 ØSØ 11,9 994,9 85 - 7
08:35 4,7 2,3 10,8 ØSØ 11,9 995,0 85 - 9
08:40 4,7 2,5 9,8 ØSØ 11,1 995,0 86 - 11
08:45 4,7 2,6 7,9 ØSØ 9,3 995,0 86 - 12
08:50 4,7 2,5 5,0 ØSØ 7,4 995,0 86 - 16
08:55 4,8 2,6 5,1 ØSØ 9,3 995,1 86 - 23
09:00 4,8 2,6 4,2 5,6 995,2 86 - 26
09:05 4,7 2,5 3,1 ØSØ 5,6 995,2 86 - 40
Daglig sammendrag for onsdag 13 November 2019
Tid Temp. ( °C ) Dew pt. ( °C ) Vind ( km/h ) fra Vindkast ( km/h ) Trykk ( hPa ) Humid.( % ) Rainrate ( cm ) Sol ( W/m2 )
Max6,0 4,1 20,6 SØ ( 772/1256 ) 28,8 995,2 89 - 40
Snitt5,4 3,3 11,4 SØ #64/110 15,6 994,5 87 - 17 #9/110
Min4,7 2,3 3,1   5,6 994,1 84 -  
Daglig Tabular details for onsdag 13 November 2019
Tid Temp. ( °C ) Dew pt. ( °C ) Vind ( km/h ) fra Vindkast ( km/h ) Trykk ( hPa ) Humid.( % ) Rainrate ( cm ) Sol ( W/m2 )
00:00 5,5 3,7 8,4 13,0 994,3 88 - -
00:05 5,6 3,6 15,3 20,4 994,4 87 - -
00:10 5,7 3,7 15,0 18,5 994,3 87 - -
00:15 5,8 3,7 13,7 27,8 994,4 86 - -
00:20 5,7 3,6 17,4 22,2 994,4 86 - -
00:25 5,8 3,6 16,7 SSØ 20,4 994,4 86 - -
00:30 5,7 3,5 11,9 16,9 994,5 86 - -
00:35 5,7 3,7 13,0 SSØ 18,5 994,4 87 - -
00:40 5,6 3,6 20,1 25,9 994,4 87 - -
00:45 5,6 3,4 13,5 23,7 994,5 86 - -
00:50 5,6 3,6 18,0 22,2 994,5 87 - -
00:55 5,6 3,6 15,0 22,2 994,4 87 - -
01:00 5,6 3,6 18,7 SSØ 28,8 994,5 87 - -
01:05 5,7 3,7 19,6 SSØ 27,0 994,5 87 - -
01:10 5,7 3,7 20,6 27,8 994,5 87 - -
01:15 5,8 3,9 14,6 SSØ 24,1 994,5 88 - -
01:20 5,7 3,9 15,8 23,7 994,5 88 - -
01:25 5,6 3,8 14,3 16,9 994,5 88 - -
01:30 5,7 3,8 19,1 24,1 994,4 88 - -
01:35 5,6 3,7 13,7 ØSØ 15,3 994,4 88 - -
01:40 5,4 3,6 15,4 18,5 994,4 88 - -
01:45 5,4 3,7 16,4 20,4 994,4 89 - -
01:50 5,3 3,7 14,5 18,5 994,4 89 - -
01:55 5,3 3,7 11,7 16,9 994,3 89 - -
02:00 5,3 3,7 12,9 18,5 994,4 89 - -
02:05 5,3 3,7 17,1 18,5 994,4 89 - -
02:10 5,5 3,8 13,5 18,5 994,4 89 - -
02:15 5,6 3,9 12,4 14,8 994,5 89 - -
02:20 5,6 3,9 12,9 ØSØ 15,3 994,5 89 - -
02:25 5,7 4,1 14,8 18,5 994,6 89 - -
02:30 5,7 3,9 10,3 11,9 994,6 88 - -
02:35 5,8 3,9 11,7 15,3 994,7 88 - -
02:40 5,8 4,0 10,1 16,9 994,7 88 - -
02:45 5,9 4,1 10,0 13,0 994,6 88 - -
02:50 5,8 4,0 11,1 14,8 994,6 88 - -
02:55 5,9 4,1 12,4 14,8 994,6 88 - -
03:00 5,8 4,0 12,7 18,5 994,6 88 - -
03:05 5,8 4,0 14,8 16,9 994,4 88 - -
03:10 5,9 4,1 11,7 15,3 994,5 88 - -
03:15 5,9 3,9 12,4 15,3 994,4 87 - -
03:20 6,0 4,0 8,7 15,3 994,4 87 - -
03:25 5,9 3,9 10,6 13,0 994,4 87 - -
03:30 5,8 3,8 11,6 ØSØ 13,5 994,4 87 - -
03:35 5,7 3,7 12,2 14,8 994,4 87 - -
03:40 5,7 3,7 10,1 ØSØ 14,8 994,3 87 - -
03:45 5,6 3,6 10,1 ØSØ 11,9 994,4 87 - -
03:50 5,5 3,5 6,8 ØSØ 9,3 994,4 87 - -
03:55 5,4 3,4 10,0 13,5 994,4 87 - -
04:00 5,3 3,3 8,7 Øst 11,9 994,3 87 - -
04:05 5,3 3,3 6,8 ØSØ 9,3 994,3 87 - -
04:10 5,3 3,4 9,0 ØSØ 10,1 994,2 88 - -
04:15 5,2 3,2 9,7 ØSØ 10,1 994,3 87 - -
04:20 5,2 3,2 6,8 ØSØ 11,1 994,2 87 - -
04:25 5,3 3,3 8,2 14,8 994,1 87 - -
04:30 5,3 3,3 11,9 13,5 994,2 87 - -
04:35 5,4 3,4 9,2 15,3 994,2 87 - -
04:40 5,4 3,4 7,6 11,9 994,1 87 - -
04:45 5,4 3,3 8,5 ØSØ 13,5 994,1 86 - -
04:50 5,4 3,2 8,8 Øst 11,9 994,1 86 - -
04:55 5,3 3,2 3,9 7,4 994,2 86 - -
05:00 5,4 3,2 5,1 8,4 994,2 86 - -
05:05 5,3 3,2 7,1 9,3 994,2 86 - -
05:10 5,2 3,2 6,3 ØSØ 9,3 994,3 87 - -
05:15 5,2 3,2 8,5 11,1 994,3 87 - -
05:20 5,2 3,2 8,5 ØSØ 11,1 994,3 87 - -
05:25 5,1 2,9 6,8 9,3 994,3 86 - -
05:30 5,3 3,1 6,1 11,1 994,3 86 - -
05:35 5,2 3,1 4,2 7,4 994,3 86 - -
05:40 5,2 3,1 6,9 9,3 994,4 86 - -
05:45 5,2 3,1 5,8 Øst 10,1 994,4 86 - -
05:50 5,4 3,2 10,6 13,0 994,4 86 - -
05:55 5,4 3,3 7,4 14,8 994,4 86 - -
06:00 5,5 3,3 9,3 14,8 994,4 86 - -
06:05 5,6 3,2 11,7 SSØ 16,9 994,3 85 - -
06:10 5,6 3,2 6,9 ØSØ 13,5 994,3 85 - -
06:15 5,6 3,2 15,3 ØSØ 16,9 994,3 85 - -
06:20 5,4 2,9 9,0 15,3 994,3 84 - -
06:25 5,6 3,2 11,6 24,1 994,4 85 - -
06:30 5,7 3,4 16,3 20,4 994,4 85 - -
06:35 5,8 3,3 15,4 ØSØ 20,4 994,4 84 - -
06:40 5,8 3,3 15,3 22,2 994,5 84 - -
06:45 5,7 3,2 14,6 18,5 994,5 84 - -
06:50 5,5 3,0 12,2 15,3 994,4 84 - -
06:55 5,6 3,2 15,6 22,2 994,5 85 - -
07:00 5,4 3,1 14,2 18,5 994,5 85 - -
07:05 5,3 3,1 13,7 SSØ 18,5 994,5 86 - -
07:10 5,3 3,2 13,4 SSØ 15,3 994,5 86 - -
07:15 5,3 3,1 16,4 ØSØ 18,5 994,5 86 - -
07:20 5,3 3,1 14,8 18,5 994,5 86 - -
07:25 5,2 3,0 14,6 16,7 994,6 86 - -
07:30 5,1 2,8 10,9 ØSØ 13,5 994,6 85 - -
07:35 5,1 2,7 15,9 ØSØ 20,4 994,6 85 - -
07:40 4,9 2,8 10,0 Øst 13,5 994,6 86 - -
07:45 4,9 2,8 12,7 ØSØ 15,3 994,6 86 - -
07:50 4,8 2,5 11,9 ØSØ 18,5 994,6 85 - -
07:55 4,9 2,7 9,5 ØSØ 13,0 994,6 86 - -
08:00 4,8 2,5 8,4 ØSØ 11,9 994,7 85 - -
08:05 4,7 2,4 8,8 ØSØ 11,9 994,7 85 - -
08:10 4,7 2,6 11,1 16,7 994,7 86 - -
08:15 4,7 2,6 9,8 ØSØ 14,8 994,7 86 - -
08:20 4,7 2,3 9,3 ØSØ 11,9 994,9 85 - -
08:25 4,8 2,4 10,0 Øst 13,0 994,8 85 - 5
08:30 4,7 2,4 5,6 ØSØ 11,9 994,9 85 - 7
08:35 4,7 2,3 10,8 ØSØ 11,9 995,0 85 - 9
08:40 4,7 2,5 9,8 ØSØ 11,1 995,0 86 - 11
08:45 4,7 2,6 7,9 ØSØ 9,3 995,0 86 - 12
08:50 4,7 2,5 5,0 ØSØ 7,4 995,0 86 - 16
08:55 4,8 2,6 5,1 ØSØ 9,3 995,1 86 - 23
09:00 4,8 2,6 4,2 5,6 995,2 86 - 26
09:05 4,7 2,5 3,1 ØSØ 5,6 995,2 86 - 40

Download your copy of this data-set  here

Our weather-data as stored at Weather Underground. Script utviklet av Jim McMurry. Tilrettelagt for malen av Leuven-Template.eu

Du finner vår vær info også på:

UK Metoffice

European Weather Network

WeatherCloud

Weather Underground

Utstyr vi bruker:

Værstsjon
Davis VP2

Værprogram
Weather Display

Davis VP2

Weather Display